KFAR

Hector International Airport

Fargo, North Dakota, USA
KFAR 182320Z 1900/1924 01013KT P6SM OVC100 FM190200 01007KT P6SM SCT200 FM191000 VRB04KT P6SM FEW250
Issued Valid From Valid To
Jan-18 @ 23:20 UTC
(3 hours ago)
Jan-19 @ 00:00 UTC
(2 hours ago)
Jan-20 @ 00:00 UTC
(in 22 hours)
Expired Click to View Jan-19 @ 00:00 to Jan-19 @ 02:00
KFAR 182320Z 1900/1924 01013KT P6SM OVC100
Wind Visibility Clouds
10° at 13 knots Greater than 6 miles
  • Overcast at 10,000' AGL
From Jan-19 @ 02:00 to Jan-19 @ 10:00
FM190200 01007KT P6SM SCT200
Wind Visibility Clouds
10° at 7 knots Greater than 6 miles
  • Scattered at 20,000' AGL
From Jan-19 @ 10:00 to Jan-20 @ 00:00
FM191000 VRB04KT P6SM FEW250
Wind Visibility Clouds
Variable at 4 knots Greater than 6 miles
  • Few at 25,000' AGL
KFAR 182320Z 1900/1924 01013KT P6SM OVC100 FM190200 01007KT P6SM SCT200 FM191000 VRB04KT P6SM FEW250
Issued Jan-18 @ 23:20 UTC
(3 hours ago)
Valid From Jan-19 @ 00:00 UTC
(2 hours ago)
Valid To Jan-20 @ 00:00 UTC
(in 22 hours)
Jan-19 @ 00:00 - Jan-19 @ 02:00
Wind Visibility
10° at 13 knots Greater than 6 miles
Clouds
  • Overcast at 10,000' AGL
From Jan-19 @ 02:00 - Jan-19 @ 10:00
Wind Visibility
10° at 7 knots Greater than 6 miles
Clouds
  • Scattered at 20,000' AGL
From Jan-19 @ 10:00 - Jan-20 @ 00:00
Wind Visibility
Variable at 4 knots Greater than 6 miles
Clouds
  • Few at 25,000' AGL